Time;durP1;ratioP1;P1;durP2;ratioP2;P2;SDS_P1;SDS_P2;PMS_P1;PMS_P2;Temp;Humidity;BMP_temperature;BMP_pressure;BME280_temperature;BME280_humidity;BME280_pressure;Samples;Min_cycle;Max_cycle;Signal;HPM_P1;HPM_P2
2023/10/30 00:02:54;;;;;;;2.05;0.68;;;14.20;99.90;;;;;;10535050;28;20124;-39
2023/10/30 00:07:57;;;;;;;4.82;1.08;;;16.70;99.90;;;;;;10536422;28;20044;-33
2023/10/30 00:13:00;;;;;;;3.85;1.15;;;17.10;99.00;;;;;;10533774;28;20059;-29
2023/10/30 00:18:02;;;;;;;2.42;0.73;;;15.80;99.90;;;;;;10542547;28;20136;-35
2023/10/30 00:23:03;;;;;;;3.60;0.82;;;15.00;99.90;;;;;;10542572;28;20392;-40
2023/10/30 00:28:06;;;;;;;1.80;0.73;;;14.50;99.90;;;;;;10543090;28;20116;-40
2023/10/30 00:33:08;;;;;;;2.78;0.68;;;15.70;99.90;;;;;;10544527;28;20553;-42
2023/10/30 00:38:10;;;;;;;1.83;0.70;;;15.80;99.90;;;;;;10541672;28;20453;-41
2023/10/30 00:43:13;;;;;;;4.73;0.63;;;16.00;99.90;;;;;;10548308;28;20113;-33
2023/10/30 00:48:15;;;;;;;2.75;0.80;;;14.90;99.90;;;;;;10536007;28;20048;-35
2023/10/30 00:53:17;;;;;;;4.50;1.00;;;15.80;99.90;;;;;;10548449;28;20718;-34
2023/10/30 00:58:20;;;;;;;7.13;1.03;;;15.50;99.90;;;;;;10547806;28;20071;-39
2023/10/30 01:03:23;;;;;;;7.32;1.00;;;15.80;99.90;;;;;;10547496;28;20040;-29
2023/10/30 01:08:26;;;;;;;3.15;0.80;;;15.60;99.90;;;;;;10547294;28;20039;-32
2023/10/30 01:13:29;;;;;;;;;;;15.50;99.90;;;;;;10541973;28;20044;-37
2023/10/30 01:18:30;;;;;;;2.38;0.70;;;15.40;99.90;;;;;;10547862;28;19916;-40
2023/10/30 01:23:32;;;;;;;1.77;1.00;;;15.70;99.90;;;;;;10542570;28;20770;-30
2023/10/30 01:28:35;;;;;;;9.75;2.15;;;15.90;99.90;;;;;;10545523;28;20146;-35
2023/10/30 01:33:37;;;;;;;2.60;1.10;;;16.10;97.90;;;;;;10546331;28;20123;-35
2023/10/30 01:38:39;;;;;;;3.77;1.20;;;16.20;99.90;;;;;;10542791;28;20131;-33
2023/10/30 01:43:42;;;;;;;3.93;1.00;;;16.80;99.70;;;;;;10546822;28;20051;-31
2023/10/30 01:48:44;;;;;;;5.38;1.40;;;15.70;99.90;;;;;;10548317;28;20045;-53
2023/10/30 01:53:47;;;;;;;6.67;1.47;;;16.90;99.60;;;;;;10540341;28;20047;-33
2023/10/30 01:58:51;;;;;;;2.33;0.75;;;15.80;99.00;;;;;;10545733;28;20126;-40
2023/10/30 02:03:55;;;;;;;3.38;0.90;;;16.50;99.90;;;;;;10545217;28;20132;-32
2023/10/30 02:08:57;;;;;;;8.00;1.25;;;16.60;99.90;;;;;;10551117;28;20093;-34
2023/10/30 02:14:00;;;;;;;8.27;1.73;;;16.00;99.30;;;;;;10548013;28;20496;-31
2023/10/30 02:19:02;;;;;;;9.85;2.40;;;14.80;99.90;;;;;;10545094;28;20039;-32
2023/10/30 02:24:06;;;;;;;4.93;1.08;;;15.30;99.90;;;;;;10535648;28;20060;-37
2023/10/30 02:29:09;;;;;;;5.28;1.17;;;15.30;99.90;;;;;;10545202;28;20048;-40
2023/10/30 02:34:12;;;;;;;8.88;1.10;;;15.80;99.90;;;;;;10541563;28;20070;-32
2023/10/30 02:39:14;;;;;;;5.43;1.10;;;16.00;99.90;;;;;;10544248;28;20063;-33
2023/10/30 02:44:17;;;;;;;3.83;1.00;;;15.60;99.90;;;;;;10540530;28;20056;-52
2023/10/30 02:49:19;;;;;;;6.97;1.48;;;14.80;99.90;;;;;;10540053;28;20753;-31
2023/10/30 02:54:21;;;;;;;4.83;0.77;;;15.60;99.90;;;;;;10538288;28;20051;-34
2023/10/30 02:59:24;;;;;;;1.93;0.77;;;16.50;99.90;;;;;;10539451;28;20083;-41
2023/10/30 03:04:26;;;;;;;4.70;1.10;;;17.50;97.60;;;;;;10541473;28;20047;-30
2023/10/30 03:09:28;;;;;;;4.57;1.13;;;16.50;98.70;;;;;;10541377;28;20092;-35
2023/10/30 03:14:31;;;;;;;6.57;2.35;;;16.90;99.90;;;;;;10543474;28;20050;-38
2023/10/30 03:19:33;;;;;;;3.20;0.82;;;17.80;94.10;;;;;;10547578;28;20392;-38
2023/10/30 03:24:35;;;;;;;4.70;1.05;;;17.40;97.40;;;;;;10544559;28;20235;-31
2023/10/30 03:29:39;;;;;;;4.30;0.83;;;18.00;95.40;;;;;;10546366;28;20196;-35
2023/10/30 03:34:41;;;;;;;3.40;0.90;;;18.60;92.20;;;;;;10546085;28;21020;-31
2023/10/30 03:39:42;;;;;;;1.90;1.00;;;17.80;95.40;;;;;;10543903;28;20134;-35
2023/10/30 03:44:46;;;;;;;2.90;1.50;;;18.60;91.20;;;;;;10546673;28;20073;-36
2023/10/30 03:49:47;;;;;;;1.40;0.70;;;17.90;94.40;;;;;;10539118;28;20048;-31
2023/10/30 03:54:50;;;;;;;2.58;0.75;;;17.90;95.00;;;;;;10540839;28;20040;-39
2023/10/30 04:15:31;;;;;;;2.60;0.80;;;18.70;91.50;;;;;;10511905;27;20115;-35
2023/10/30 04:20:32;;;;;;;4.07;0.98;;;18.90;91.10;;;;;;10528850;28;20066;-37
2023/10/30 04:25:34;;;;;;;4.35;0.90;;;18.20;92.60;;;;;;10524476;28;20047;-43
2023/10/30 04:30:37;;;;;;;1.93;1.10;;;17.70;92.80;;;;;;10523360;28;20085;-33
2023/10/30 04:35:39;;;;;;;8.48;1.27;;;18.10;94.00;;;;;;10532322;28;20607;-35
2023/10/30 04:40:41;;;;;;;5.23;1.90;;;17.80;93.20;;;;;;10529608;28;20060;-38
2023/10/30 04:45:44;;;;;;;2.73;0.83;;;17.60;94.20;;;;;;10521861;28;20146;-38
2023/10/30 04:50:46;;;;;;;2.78;1.02;;;17.10;95.30;;;;;;10532050;28;20104;-33
2023/10/30 04:55:50;;;;;;;3.53;0.95;;;18.00;93.50;;;;;;10523449;28;20051;-43
2023/10/30 05:00:54;;;;;;;3.90;0.88;;;17.80;94.80;;;;;;10522501;28;20054;-37
2023/10/30 05:05:55;;;;;;;3.50;0.90;;;17.70;94.40;;;;;;10525253;28;20074;-37
2023/10/30 05:10:59;;;;;;;5.03;1.03;;;18.00;94.00;;;;;;10526253;28;20083;-34
2023/10/30 05:16:02;;;;;;;2.60;0.70;;;16.70;97.70;;;;;;10526016;28;20550;-42
2023/10/30 05:21:05;;;;;;;2.10;0.85;;;16.20;99.90;;;;;;10532834;28;20122;-38
2023/10/30 05:26:06;;;;;;;4.72;1.23;;;16.30;99.90;;;;;;10510647;28;20097;-37
2023/10/30 05:31:10;;;;;;;5.17;1.00;;;17.00;96.80;;;;;;10494298;28;20826;-46
2023/10/30 05:36:11;;;;;;;7.18;1.10;;;16.80;96.00;;;;;;10505376;28;20107;-38
2023/10/30 05:41:13;;;;;;;4.93;1.00;;;17.00;98.30;;;;;;10505471;28;20143;-32
2023/10/30 05:46:16;;;;;;;7.00;1.00;;;16.40;99.90;;;;;;10483274;28;20131;-37
2023/10/30 05:51:18;;;;;;;8.43;1.15;;;17.10;97.20;;;;;;10499732;28;20404;-34
2023/10/30 05:56:20;;;;;;;1.60;0.67;;;16.60;98.70;;;;;;10502714;28;20094;-38
2023/10/30 06:01:24;;;;;;;10.77;1.35;;;17.00;98.70;;;;;;10489519;28;20489;-34
2023/10/30 06:06:26;;;;;;;4.68;1.00;;;16.90;95.30;;;;;;10486669;28;20040;-35
2023/10/30 06:11:27;;;;;;;3.03;1.03;;;17.30;96.90;;;;;;10503907;28;20056;-31
2023/10/30 06:16:30;;;;;;;7.53;1.03;;;16.20;99.90;;;;;;10499705;28;20139;-36
2023/10/30 06:21:33;;;;;;;3.53;1.08;;;16.70;97.40;;;;;;10503544;28;20131;-38
2023/10/30 06:26:35;;;;;;;4.40;0.88;;;16.30;99.90;;;;;;10487477;28;20040;-37
2023/10/30 06:31:38;;;;;;;14.43;1.95;;;17.40;95.80;;;;;;10491961;28;20486;-37
2023/10/30 06:36:40;;;;;;;6.43;1.23;;;17.00;95.90;;;;;;10498133;28;20094;-36
2023/10/30 06:41:43;;;;;;;5.47;1.17;;;16.20;99.90;;;;;;10492075;28;20056;-35
2023/10/30 06:46:50;;;;;;;6.03;1.02;;;17.20;95.70;;;;;;10490382;28;20108;-37
2023/10/30 06:51:52;;;;;;;7.93;1.40;;;17.50;97.40;;;;;;10493662;28;20549;-37
2023/10/30 06:56:54;;;;;;;3.20;1.47;;;17.40;96.10;;;;;;10481920;28;20052;-44
2023/10/30 07:01:57;;;;;;;12.63;2.57;;;17.90;95.40;;;;;;10484409;28;20496;-37
2023/10/30 07:06:59;;;;;;;4.38;0.80;;;17.50;94.40;;;;;;10487003;28;22243;-35
2023/10/30 07:12:00;;;;;;;3.43;0.93;;;17.90;95.10;;;;;;10491399;28;20106;-42
2023/10/30 07:17:04;;;;;;;2.73;0.97;;;18.50;92.80;;;;;;10494691;28;20592;-35
2023/10/30 07:22:05;;;;;;;10.57;1.20;;;18.10;94.50;;;;;;10493032;28;20040;-33
2023/10/30 07:27:07;;;;;;;3.25;1.23;;;18.50;93.10;;;;;;10476319;28;20425;-36
2023/10/30 07:32:10;;;;;;;6.93;1.20;;;18.40;93.00;;;;;;10491544;28;20127;-37
2023/10/30 07:37:12;;;;;;;5.03;1.00;;;19.00;91.40;;;;;;10474549;28;20053;-32
2023/10/30 07:42:14;;;;;;;4.45;1.08;;;19.20;90.80;;;;;;10493499;28;20072;-32
2023/10/30 07:47:17;;;;;;;7.60;1.67;;;19.00;90.60;;;;;;10482976;28;20054;-34
2023/10/30 07:52:19;;;;;;;5.00;1.15;;;17.90;94.90;;;;;;10486603;28;20109;-32
2023/10/30 07:57:21;;;;;;;4.63;1.05;;;18.60;92.80;;;;;;10487225;28;20123;-33
2023/10/30 08:02:24;;;;;;;2.72;1.23;;;19.10;91.00;;;;;;10482122;28;20068;-42
2023/10/30 08:07:26;;;;;;;9.88;1.02;;;18.80;92.10;;;;;;10489342;28;20040;-39
2023/10/30 08:12:28;;;;;;;4.30;1.42;;;18.60;92.70;;;;;;10494337;28;20107;-35
2023/10/30 08:17:31;;;;;;;8.05;1.50;;;18.50;92.50;;;;;;10490502;28;20116;-37
2023/10/30 08:22:33;;;;;;;6.25;1.00;;;18.50;93.00;;;;;;10484212;28;20539;-38
2023/10/30 08:27:35;;;;;;;5.90;1.55;;;18.80;91.90;;;;;;10485017;28;20438;-36
2023/10/30 08:32:39;;;;;;;4.47;1.10;;;18.80;91.10;;;;;;10483259;28;20098;-35
2023/10/30 08:37:41;;;;;;;7.40;1.30;;;18.30;93.60;;;;;;10480692;28;20047;-38
2023/10/30 08:42:43;;;;;;;4.75;1.35;;;17.60;95.50;;;;;;10485552;28;20048;-52
2023/10/30 08:47:46;;;;;;;8.93;2.00;;;17.00;98.40;;;;;;10488182;28;20481;-38
2023/10/30 08:52:48;;;;;;;10.18;1.70;;;17.30;96.80;;;;;;10485282;28;20432;-41
2023/10/30 08:57:50;;;;;;;7.40;1.83;;;17.50;97.00;;;;;;10486130;28;20399;-41
2023/10/30 09:02:53;;;;;;;4.68;1.52;;;17.30;98.00;;;;;;10505275;28;20056;-32
2023/10/30 09:07:55;;;;;;;16.67;2.20;;;17.70;97.20;;;;;;10491978;28;20077;-36
2023/10/30 09:12:57;;;;;;;6.40;1.00;;;16.40;99.90;;;;;;10495138;28;20086;-38
2023/10/30 09:18:00;;;;;;;7.40;1.60;;;17.70;97.10;;;;;;10497159;28;20182;-40
2023/10/30 09:23:02;;;;;;;13.75;2.33;;;18.00;95.50;;;;;;10485559;28;20453;-34
2023/10/30 09:28:04;;;;;;;10.73;1.63;;;17.90;94.10;;;;;;10489088;28;20083;-32
2023/10/30 09:33:07;;;;;;;10.65;1.90;;;17.70;96.80;;;;;;10496386;28;20753;-35
2023/10/30 09:38:09;;;;;;;10.63;1.50;;;17.70;96.10;;;;;;10491119;28;20131;-32
2023/10/30 09:43:11;;;;;;;6.85;1.90;;;17.80;96.60;;;;;;10496805;28;20063;-44
2023/10/30 09:48:15;;;;;;;6.57;1.45;;;18.70;93.10;;;;;;10485708;28;20503;-32
2023/10/30 09:53:18;;;;;;;4.63;1.60;;;18.70;91.90;;;;;;10484221;28;20121;-31
2023/10/30 09:58:23;;;;;;;3.15;1.20;;;19.20;90.90;;;;;;10466776;28;20137;-37
2023/10/30 10:03:27;;;;;;;7.13;1.63;;;19.10;91.20;;;;;;10492314;28;20542;-32
2023/10/30 10:08:28;;;;;;;3.50;1.45;;;19.30;90.40;;;;;;10479245;28;20049;-35
2023/10/30 10:13:32;;;;;;;4.75;1.63;;;19.50;88.80;;;;;;10496598;28;20124;-44
2023/10/30 10:18:36;;;;;;;7.10;1.30;;;19.20;90.40;;;;;;10488384;28;20533;-40
2023/10/30 10:23:39;;;;;;;11.23;2.00;;;19.00;90.90;;;;;;10489763;28;20533;-34
2023/10/30 10:28:41;;;;;;;5.70;1.33;;;18.50;91.90;;;;;;10490684;28;20059;-31
2023/10/30 10:33:48;;;;;;;5.72;1.83;;;18.00;94.10;;;;;;10490526;28;20053;-32
2023/10/30 10:38:57;;;;;;;4.90;1.65;;;17.90;95.40;;;;;;10492306;28;20519;-37
2023/10/30 10:44:01;;;;;;;2.78;1.20;;;18.80;92.10;;;;;;10484799;28;20051;-31
2023/10/30 10:49:04;;;;;;;3.10;1.45;;;18.60;93.10;;;;;;10488974;28;20103;-34
2023/10/30 10:54:11;;;;;;;8.98;1.80;;;18.70;92.60;;;;;;10494036;28;20125;-38
2023/10/30 10:59:16;;;;;;;3.22;1.10;;;18.90;91.70;;;;;;10490553;28;20393;-37
2023/10/30 11:04:20;;;;;;;3.75;1.40;;;18.40;93.10;;;;;;10491875;28;20044;-38
2023/10/30 11:09:27;;;;;;;5.35;1.48;;;18.40;93.60;;;;;;10484496;28;20127;-31
2023/10/30 11:14:39;;;;;;;9.82;1.70;;;18.80;92.10;;;;;;10489121;28;20045;-38
2023/10/30 11:19:45;;;;;;;3.45;1.25;;;18.60;92.40;;;;;;10489164;28;20435;-36
2023/10/30 11:24:47;;;;;;;5.15;1.50;;;18.60;92.70;;;;;;10490418;28;20393;-40
2023/10/30 11:29:56;;;;;;;6.00;1.55;;;18.80;91.90;;;;;;10493144;28;20128;-33
2023/10/30 11:35:01;;;;;;;3.50;1.70;;;19.40;89.90;;;;;;10487448;28;20051;-43
2023/10/30 11:40:07;;;;;;;7.00;1.77;;;19.00;91.10;;;;;;10492976;28;20036;-43
2023/10/30 11:45:21;;;;;;;5.47;1.90;;;19.30;90.20;;;;;;10488331;28;20151;-36
2023/10/30 11:50:27;;;;;;;9.25;1.77;;;17.50;96.70;;;;;;10486148;28;20056;-38
2023/10/30 11:55:30;;;;;;;3.50;1.20;;;18.50;93.20;;;;;;10475607;28;20050;-40
2023/10/30 12:00:32;;;;;;;8.75;2.30;;;19.20;91.20;;;;;;10482709;28;20040;-36
2023/10/30 12:05:36;;;;;;;8.43;2.10;;;18.30;92.60;;;;;;10484503;28;20105;-42
2023/10/30 12:10:39;;;;;;;3.95;1.10;;;17.90;95.00;;;;;;10489420;28;20067;-36
2023/10/30 12:15:41;;;;;;;6.30;1.60;;;18.10;94.60;;;;;;10488027;28;20043;-34
2023/10/30 12:20:44;;;;;;;7.57;1.58;;;18.50;93.30;;;;;;10482113;28;20420;-44
2023/10/30 12:25:49;;;;;;;10.30;1.48;;;18.80;92.00;;;;;;10480006;28;20105;-38
2023/10/30 12:30:50;;;;;;;4.75;1.10;;;19.30;90.80;;;;;;10481584;28;20056;-31
2023/10/30 12:35:59;;;;;;;4.07;1.27;;;19.00;91.30;;;;;;10486631;28;20047;-37
2023/10/30 12:41:06;;;;;;;3.42;1.20;;;19.20;90.70;;;;;;10494939;28;20051;-45
2023/10/30 12:46:08;;;;;;;5.13;1.45;;;19.40;89.20;;;;;;10494280;28;20044;-38
2023/10/30 12:51:11;;;;;;;7.32;1.42;;;19.00;90.70;;;;;;10498617;28;20126;-38
2023/10/30 12:56:13;;;;;;;5.25;1.52;;;19.00;91.20;;;;;;10481275;28;20185;-42
2023/10/30 13:01:15;;;;;;;8.82;2.28;;;19.10;91.20;;;;;;10492351;28;20446;-40
2023/10/30 13:06:18;;;;;;;3.00;1.40;;;19.50;90.30;;;;;;10484730;28;20041;-40
2023/10/30 13:11:21;;;;;;;3.13;1.60;;;19.60;89.00;;;;;;10491839;28;20494;-40
2023/10/30 13:16:23;;;;;;;3.15;1.20;;;19.80;87.40;;;;;;10475904;28;20146;-48
2023/10/30 13:21:26;;;;;;;4.45;1.25;;;19.90;87.00;;;;;;10490744;28;20048;-43
2023/10/30 13:26:28;;;;;;;2.33;1.30;;;19.70;88.60;;;;;;10492572;28;20048;-47
2023/10/30 13:31:30;;;;;;;5.55;1.15;;;20.00;86.70;;;;;;10499345;28;20040;-34
2023/10/30 13:36:33;;;;;;;4.78;1.63;;;20.00;86.90;;;;;;10486625;28;20040;-43
2023/10/30 13:41:35;;;;;;;11.63;1.58;;;20.10;86.20;;;;;;10497799;28;20071;-33
2023/10/30 13:46:37;;;;;;;6.55;1.50;;;20.00;86.60;;;;;;10496754;28;20564;-43
2023/10/30 13:51:40;;;;;;;2.88;1.48;;;20.20;85.30;;;;;;10498745;28;20044;-33
2023/10/30 13:56:42;;;;;;;5.57;1.70;;;20.20;85.40;;;;;;10497501;28;20428;-34
2023/10/30 14:01:44;;;;;;;3.28;1.67;;;20.20;84.90;;;;;;10495683;28;20055;-31
2023/10/30 14:06:47;;;;;;;4.85;1.92;;;20.30;84.50;;;;;;10495654;28;22293;-33
2023/10/30 14:11:49;;;;;;;10.15;2.47;;;20.20;84.50;;;;;;10490163;28;20131;-35
2023/10/30 14:16:52;;;;;;;8.93;1.77;;;20.30;84.30;;;;;;10484119;28;20040;-39
2023/10/30 14:21:55;;;;;;;5.85;2.03;;;20.30;84.70;;;;;;10496636;28;20036;-48
2023/10/30 14:26:56;;;;;;;6.32;1.83;;;20.30;84.60;;;;;;10501887;28;20180;-34
2023/10/30 14:31:58;;;;;;;6.15;1.60;;;20.30;84.40;;;;;;10486916;28;20231;-34
2023/10/30 14:37:02;;;;;;;3.90;1.40;;;20.30;84.10;;;;;;10491233;28;20083;-37
2023/10/30 14:42:04;;;;;;;3.33;1.55;;;20.30;84.20;;;;;;10491362;28;20041;-36
2023/10/30 14:47:07;;;;;;;4.28;1.83;;;20.30;84.00;;;;;;10490141;28;20123;-38
2023/10/30 14:52:10;;;;;;;3.65;1.40;;;20.40;84.40;;;;;;10484870;28;20045;-48
2023/10/30 14:57:13;;;;;;;5.30;2.08;;;20.40;84.20;;;;;;10491890;28;20048;-30
2023/10/30 15:02:16;;;;;;;4.30;1.75;;;20.40;83.90;;;;;;10485762;28;20493;-33
2023/10/30 15:07:19;;;;;;;;;;;20.40;84.10;;;;;;10485917;28;20052;-37
2023/10/30 15:12:21;;;;;;;4.57;2.28;;;20.40;83.90;;;;;;10496637;28;19915;-34
2023/10/30 15:17:23;;;;;;;;;;;20.40;84.10;;;;;;10483178;28;20049;-37
2023/10/30 15:22:26;;;;;;;4.57;2.30;;;20.40;83.90;;;;;;10474475;28;20001;-41
2023/10/30 15:27:30;;;;;;;5.38;1.90;;;20.40;84.30;;;;;;10486537;28;20047;-41
2023/10/30 15:32:32;;;;;;;7.10;2.70;;;20.40;84.40;;;;;;10489322;28;20138;-31
2023/10/30 15:37:36;;;;;;;2.67;1.35;;;20.40;84.50;;;;;;10479920;28;20046;-39
2023/10/30 15:42:37;;;;;;;7.65;2.40;;;20.40;84.40;;;;;;10475506;28;20856;-33
2023/10/30 15:47:41;;;;;;;4.55;2.08;;;20.40;84.30;;;;;;10493388;28;20465;-30
2023/10/30 15:52:45;;;;;;;5.30;1.40;;;20.40;84.40;;;;;;10477512;28;20068;-29
2023/10/30 15:57:46;;;;;;;7.55;2.55;;;20.30;84.40;;;;;;10489420;28;20053;-31
2023/10/30 16:02:48;;;;;;;4.82;1.50;;;18.70;90.90;;;;;;10473964;28;20539;-37
2023/10/30 16:07:51;;;;;;;6.47;1.60;;;15.60;99.90;;;;;;10474876;28;20076;-41
2023/10/30 16:12:53;;;;;;;4.10;1.60;;;14.30;99.90;;;;;;10489412;28;20048;-31
2023/10/30 16:17:55;;;;;;;5.73;1.70;;;13.90;99.90;;;;;;10479525;28;20062;-31
2023/10/30 16:22:58;;;;;;;6.45;2.25;;;13.70;99.90;;;;;;10471787;28;20045;-48
2023/10/30 16:28:00;;;;;;;5.38;2.70;;;13.70;99.90;;;;;;10488278;28;20503;-43
2023/10/30 16:33:02;;;;;;;11.63;3.75;;;13.60;99.90;;;;;;10494190;28;20044;-37
2023/10/30 16:38:05;;;;;;;8.23;3.08;;;13.50;99.90;;;;;;10489147;28;20031;-35
2023/10/30 16:43:07;;;;;;;9.13;3.08;;;13.30;99.90;;;;;;10501377;28;20032;-35
2023/10/30 16:48:10;;;;;;;8.73;2.80;;;13.10;99.90;;;;;;10492203;28;20066;-36
2023/10/30 16:53:15;;;;;;;12.45;4.20;;;13.10;99.90;;;;;;10496432;28;20354;-40
2023/10/30 16:58:17;;;;;;;8.90;3.83;;;13.00;99.90;;;;;;10496914;28;20813;-31
2023/10/30 17:03:19;;;;;;;6.73;3.23;;;14.50;99.90;;;;;;10488165;28;20055;-39
2023/10/30 17:08:23;;;;;;;11.18;4.07;;;17.90;99.90;;;;;;10492315;28;20067;-35
2023/10/30 17:13:26;;;;;;;5.38;3.53;;;18.80;96.30;;;;;;10493357;28;20040;-35
2023/10/30 17:18:28;;;;;;;7.47;3.35;;;19.20;94.00;;;;;;10476587;28;20044;-42
2023/10/30 17:23:31;;;;;;;6.40;2.85;;;19.40;92.70;;;;;;10490056;28;20064;-38
2023/10/30 17:28:33;;;;;;;4.88;2.78;;;19.60;91.80;;;;;;10498078;28;20163;-38
2023/10/30 17:33:35;;;;;;;10.38;2.55;;;19.80;91.20;;;;;;10498851;28;20052;-31
2023/10/30 17:38:38;;;;;;;6.18;2.97;;;19.80;90.90;;;;;;10503813;28;20050;-37
2023/10/30 17:43:40;;;;;;;3.75;1.75;;;19.90;90.40;;;;;;10491500;28;20484;-35
2023/10/30 17:48:41;;;;;;;4.50;1.77;;;19.90;90.30;;;;;;10489314;28;20036;-31
2023/10/30 17:53:45;;;;;;;6.32;2.42;;;20.00;90.20;;;;;;10490997;28;20080;-31
2023/10/30 17:58:46;;;;;;;6.70;1.85;;;20.00;90.20;;;;;;10493440;28;20040;-32
2023/10/30 18:03:48;;;;;;;6.90;2.22;;;20.00;90.30;;;;;;10478604;28;20040;-32
2023/10/30 18:08:52;;;;;;;;;;;20.10;89.50;;;;;;10470748;28;20067;-36
2023/10/30 18:13:54;;;;;;;6.10;2.42;;;20.00;89.50;;;;;;10487322;28;20285;-32
2023/10/30 18:18:55;;;;;;;9.02;3.25;;;19.80;90.10;;;;;;10495219;28;20477;-31
2023/10/30 18:23:59;;;;;;;8.82;2.75;;;19.70;90.00;;;;;;10483894;28;20032;-30
2023/10/30 18:29:01;;;;;;;5.78;2.83;;;19.70;89.40;;;;;;10489330;28;20036;-49
2023/10/30 18:34:03;;;;;;;10.57;4.22;;;19.70;89.50;;;;;;10472012;28;20518;-41
2023/10/30 18:39:08;;;;;;;8.18;4.00;;;19.70;89.40;;;;;;10490978;28;20091;-32
2023/10/30 18:44:10;;;;;;;7.82;4.30;;;19.70;88.80;;;;;;10495063;28;20044;-33
2023/10/30 18:49:12;;;;;;;9.32;5.43;;;19.70;88.40;;;;;;10486861;28;20044;-35
2023/10/30 18:54:15;;;;;;;8.02;4.20;;;19.40;89.90;;;;;;10476731;28;20133;-39
2023/10/30 18:59:17;;;;;;;7.72;3.63;;;19.40;89.80;;;;;;10497416;28;20040;-48
2023/10/30 19:04:19;;;;;;;10.15;3.70;;;19.80;88.80;;;;;;10489800;28;20058;-31
2023/10/30 19:09:23;;;;;;;6.15;2.88;;;19.90;88.40;;;;;;10494676;28;20058;-31
2023/10/30 19:14:25;;;;;;;7.28;3.40;;;20.00;87.90;;;;;;10486947;28;20416;-33
2023/10/30 19:19:27;;;;;;;5.90;2.65;;;20.00;87.80;;;;;;10498527;28;20036;-34
2023/10/30 19:24:30;;;;;;;4.25;2.58;;;20.10;87.90;;;;;;10493774;28;20032;-35
2023/10/30 19:29:32;;;;;;;3.55;2.35;;;20.10;87.80;;;;;;10486225;28;20039;-44
2023/10/30 19:34:34;;;;;;;6.85;2.80;;;20.10;87.90;;;;;;10491787;28;20178;-44
2023/10/30 19:39:37;;;;;;;7.53;3.17;;;20.10;87.90;;;;;;10488861;28;20037;-38
2023/10/30 19:44:39;;;;;;;6.90;2.92;;;20.10;87.80;;;;;;10472556;28;20744;-31
2023/10/30 19:49:42;;;;;;;5.80;2.60;;;20.10;87.90;;;;;;10486427;28;20059;-37
2023/10/30 19:54:45;;;;;;;6.00;3.03;;;20.10;88.10;;;;;;10487196;28;20139;-34
2023/10/30 19:59:47;;;;;;;6.93;2.80;;;20.10;88.10;;;;;;10480627;28;20052;-36
2023/10/30 20:04:48;;;;;;;4.38;2.20;;;20.10;88.00;;;;;;10475406;28;20393;-37
2023/10/30 20:09:52;;;;;;;6.60;2.97;;;20.10;88.10;;;;;;10482407;28;20052;-35
2023/10/30 20:14:53;;;;;;;8.48;2.90;;;20.10;87.90;;;;;;10494380;28;20209;-37
2023/10/30 20:19:55;;;;;;;6.43;3.33;;;20.10;87.80;;;;;;10484522;28;20043;-37
2023/10/30 20:24:59;;;;;;;12.13;2.92;;;20.10;87.60;;;;;;10484920;28;20649;-31
2023/10/30 20:30:01;;;;;;;8.07;3.45;;;20.00;87.50;;;;;;10496118;28;20473;-38
2023/10/30 20:35:02;;;;;;;7.72;2.72;;;20.10;87.50;;;;;;10487201;28;20067;-32
2023/10/30 20:40:07;;;;;;;6.00;3.00;;;20.10;86.90;;;;;;10495095;28;20093;-46
2023/10/30 20:45:09;;;;;;;9.52;3.90;;;20.10;87.10;;;;;;10487991;28;20563;-35
2023/10/30 20:50:11;;;;;;;9.63;3.95;;;20.00;87.10;;;;;;10486369;28;20055;-44
2023/10/30 20:55:16;;;;;;;11.73;4.03;;;20.00;87.20;;;;;;10496112;28;20522;-36
2023/10/30 21:00:21;;;;;;;9.95;4.32;;;20.00;87.20;;;;;;10495169;28;20044;-33
2023/10/30 21:05:24;;;;;;;10.10;5.03;;;20.00;86.90;;;;;;10484354;28;20131;-36
2023/10/30 21:10:28;;;;;;;11.95;4.28;;;20.00;86.80;;;;;;10498642;28;20058;-38
2023/10/30 21:15:30;;;;;;;12.35;4.22;;;19.80;87.90;;;;;;10497218;28;20531;-34
2023/10/30 21:20:32;;;;;;;6.80;3.10;;;19.90;87.30;;;;;;10498118;28;20111;-42
2023/10/30 21:25:35;;;;;;;9.15;2.83;;;20.00;86.90;;;;;;10493649;28;20400;-38
2023/10/30 21:30:37;;;;;;;12.63;2.60;;;19.00;90.80;;;;;;10496962;28;20066;-49
2023/10/30 21:35:39;;;;;;;13.63;3.88;;;18.20;91.70;;;;;;10497819;28;20043;-35
2023/10/30 21:40:42;;;;;;;11.40;3.42;;;18.40;94.70;;;;;;10503813;28;20044;-34
2023/10/30 21:45:44;;;;;;;9.02;1.27;;;18.00;95.80;;;;;;10497890;28;20143;-33
2023/10/30 21:50:46;;;;;;;9.85;2.42;;;18.30;90.90;;;;;;10503959;28;20052;-37
2023/10/30 21:55:49;;;;;;;8.05;2.63;;;18.30;94.30;;;;;;10499820;28;20084;-35
2023/10/30 22:00:51;;;;;;;12.02;3.15;;;17.20;99.90;;;;;;10503811;28;20043;-55
2023/10/30 22:05:53;;;;;;;6.53;1.02;;;18.60;94.60;;;;;;10498498;28;20122;-32
2023/10/30 22:10:56;;;;;;;11.90;4.17;;;18.60;90.10;;;;;;10498162;28;20147;-33
2023/10/30 22:15:58;;;;;;;14.75;4.10;;;19.40;91.40;;;;;;10505398;28;20075;-33
2023/10/30 22:21:00;;;;;;;17.10;5.43;;;18.80;92.90;;;;;;10500282;28;20075;-38
2023/10/30 22:26:04;;;;;;;10.98;3.97;;;19.50;90.90;;;;;;10495571;28;20040;-39
2023/10/30 22:31:06;;;;;;;8.30;3.47;;;19.60;90.20;;;;;;10500173;28;20036;-41
2023/10/30 22:36:08;;;;;;;13.25;4.15;;;19.50;89.70;;;;;;10498862;28;20535;-45
2023/10/30 22:41:11;;;;;;;;;;;19.20;90.40;;;;;;10498055;28;20048;-44
2023/10/30 22:46:16;;;;;;;8.02;2.67;;;18.60;92.70;;;;;;10468232;28;19959;-37
2023/10/30 22:51:17;;;;;;;5.53;2.45;;;18.50;91.80;;;;;;10501430;28;20048;-40
2023/10/30 22:56:21;;;;;;;18.20;4.93;;;18.90;90.80;;;;;;10500626;28;20075;-32
2023/10/30 23:01:23;;;;;;;10.07;2.53;;;19.10;91.70;;;;;;10484353;28;20682;-33
2023/10/30 23:06:24;;;;;;;15.68;4.40;;;18.20;92.70;;;;;;10498708;28;20067;-37
2023/10/30 23:11:27;;;;;;;11.80;3.00;;;18.30;94.30;;;;;;10496043;28;20076;-32
2023/10/30 23:16:29;;;;;;;11.77;3.55;;;18.10;94.00;;;;;;10479165;28;20172;-44
2023/10/30 23:21:31;;;;;;;11.10;3.92;;;18.80;92.80;;;;;;10494972;28;20067;-39
2023/10/30 23:26:34;;;;;;;8.37;3.40;;;18.90;92.40;;;;;;10502210;28;20128;-39
2023/10/30 23:31:36;;;;;;;9.35;2.42;;;17.80;96.10;;;;;;10495016;28;20563;-33
2023/10/30 23:36:37;;;;;;;9.45;3.83;;;18.90;92.10;;;;;;10499138;28;20134;-38
2023/10/30 23:41:43;;;;;;;9.75;3.28;;;19.10;91.60;;;;;;10492185;28;20048;-39
2023/10/30 23:46:45;;;;;;;10.57;3.60;;;18.60;93.00;;;;;;10490365;28;20120;-32
2023/10/30 23:51:47;;;;;;;10.48;4.88;;;18.60;92.60;;;;;;10489797;28;20040;-34
2023/10/30 23:56:51;;;;;;;10.68;4.03;;;18.80;92.50;;;;;;10501274;28;20093;-39
